sensor_id;sensor_type;location;lat;lon;timestamp;temperature;humidity
19522;DHT22;9905;52.126;5.596;2024-01-15T00:00:53;2.20;99.90
19522;DHT22;9905;52.126;5.596;2024-01-15T00:03:19;2.20;99.90
19522;DHT22;9905;52.126;5.596;2024-01-15T00:05:46;2.10;99.90
19522;DHT22;9905;52.126;5.596;2024-01-15T00:08:13;2.10;99.90
19522;DHT22;9905;52.126;5.596;2024-01-15T00:10:40;2.10;99.90
19522;DHT22;9905;52.126;5.596;2024-01-15T00:13:07;2.10;99.90
19522;DHT22;9905;52.126;5.596;2024-01-15T00:15:35;2.00;99.90
19522;DHT22;9905;52.126;5.596;2024-01-15T00:18:02;2.00;99.90
19522;DHT22;9905;52.126;5.596;2024-01-15T00:20:29;2.00;99.90
19522;DHT22;9905;52.126;5.596;2024-01-15T00:22:55;2.00;99.90
19522;DHT22;9905;52.126;5.596;2024-01-15T00:25:22;2.00;99.90
19522;DHT22;9905;52.126;5.596;2024-01-15T00:27:49;1.90;99.90
19522;DHT22;9905;52.126;5.596;2024-01-15T00:30:16;1.90;99.90
19522;DHT22;9905;52.126;5.596;2024-01-15T00:32:44;2.00;99.90
19522;DHT22;9905;52.126;5.596;2024-01-15T00:35:11;1.90;99.90
19522;DHT22;9905;52.126;5.596;2024-01-15T00:37:38;1.90;99.90
19522;DHT22;9905;52.126;5.596;2024-01-15T00:40:06;1.80;99.90
19522;DHT22;9905;52.126;5.596;2024-01-15T00:42:33;1.80;99.90
19522;DHT22;9905;52.126;5.596;2024-01-15T00:45:00;1.80;99.90
19522;DHT22;9905;52.126;5.596;2024-01-15T00:47:27;1.80;99.90
19522;DHT22;9905;52.126;5.596;2024-01-15T00:49:55;1.80;99.90
19522;DHT22;9905;52.126;5.596;2024-01-15T00:52:22;1.80;99.90
19522;DHT22;9905;52.126;5.596;2024-01-15T00:54:48;1.70;99.90
19522;DHT22;9905;52.126;5.596;2024-01-15T00:57:15;1.70;99.90
19522;DHT22;9905;52.126;5.596;2024-01-15T00:59:42;1.70;99.90
19522;DHT22;9905;52.126;5.596;2024-01-15T01:02:08;1.70;99.90
19522;DHT22;9905;52.126;5.596;2024-01-15T01:04:35;1.60;99.90
19522;DHT22;9905;52.126;5.596;2024-01-15T01:07:03;1.60;99.90
19522;DHT22;9905;52.126;5.596;2024-01-15T01:09:30;1.60;99.90
19522;DHT22;9905;52.126;5.596;2024-01-15T01:11:57;1.60;99.90
19522;DHT22;9905;52.126;5.596;2024-01-15T01:14:24;1.60;99.90
19522;DHT22;9905;52.126;5.596;2024-01-15T01:16:50;1.50;99.90
19522;DHT22;9905;52.126;5.596;2024-01-15T01:19:17;1.50;99.90
19522;DHT22;9905;52.126;5.596;2024-01-15T01:21:44;1.50;99.90
19522;DHT22;9905;52.126;5.596;2024-01-15T01:24:12;1.50;99.90
19522;DHT22;9905;52.126;5.596;2024-01-15T01:26:39;1.50;99.90
19522;DHT22;9905;52.126;5.596;2024-01-15T01:29:06;1.50;99.90
19522;DHT22;9905;52.126;5.596;2024-01-15T01:31:32;1.50;99.90
19522;DHT22;9905;52.126;5.596;2024-01-15T01:33:59;1.50;99.90
19522;DHT22;9905;52.126;5.596;2024-01-15T01:36:26;1.50;99.90
19522;DHT22;9905;52.126;5.596;2024-01-15T01:38:52;1.50;99.90
19522;DHT22;9905;52.126;5.596;2024-01-15T01:41:21;1.50;99.90
19522;DHT22;9905;52.126;5.596;2024-01-15T01:43:49;1.50;99.90
19522;DHT22;9905;52.126;5.596;2024-01-15T01:46:16;1.50;99.90
19522;DHT22;9905;52.126;5.596;2024-01-15T01:48:43;1.40;99.90
19522;DHT22;9905;52.126;5.596;2024-01-15T01:51:11;1.40;99.90
19522;DHT22;9905;52.126;5.596;2024-01-15T01:53:38;1.40;99.90
19522;DHT22;9905;52.126;5.596;2024-01-15T01:56:06;1.30;99.90
19522;DHT22;9905;52.126;5.596;2024-01-15T01:58:35;1.40;99.90
19522;DHT22;9905;52.126;5.596;2024-01-15T02:01:01;1.30;99.90
19522;DHT22;9905;52.126;5.596;2024-01-15T02:03:30;1.30;99.90
19522;DHT22;9905;52.126;5.596;2024-01-15T02:05:59;1.30;99.90
19522;DHT22;9905;52.126;5.596;2024-01-15T02:08:25;1.30;99.90
19522;DHT22;9905;52.126;5.596;2024-01-15T02:10:52;1.30;99.90
19522;DHT22;9905;52.126;5.596;2024-01-15T02:13:20;1.30;99.90
19522;DHT22;9905;52.126;5.596;2024-01-15T02:15:48;1.30;99.90
19522;DHT22;9905;52.126;5.596;2024-01-15T02:18:15;1.30;99.90
19522;DHT22;9905;52.126;5.596;2024-01-15T02:20:42;1.20;99.90
19522;DHT22;9905;52.126;5.596;2024-01-15T02:23:12;1.30;99.90
19522;DHT22;9905;52.126;5.596;2024-01-15T02:25:41;1.40;99.90
19522;DHT22;9905;52.126;5.596;2024-01-15T02:28:10;1.50;99.90
19522;DHT22;9905;52.126;5.596;2024-01-15T02:30:37;1.50;99.90
19522;DHT22;9905;52.126;5.596;2024-01-15T02:33:05;1.50;99.90
19522;DHT22;9905;52.126;5.596;2024-01-15T02:35:32;1.50;99.90
19522;DHT22;9905;52.126;5.596;2024-01-15T02:37:58;1.50;99.90
19522;DHT22;9905;52.126;5.596;2024-01-15T02:40:27;1.50;99.90
19522;DHT22;9905;52.126;5.596;2024-01-15T02:42:53;1.50;99.90
19522;DHT22;9905;52.126;5.596;2024-01-15T02:45:20;1.60;99.90
19522;DHT22;9905;52.126;5.596;2024-01-15T02:47:48;1.60;99.90
19522;DHT22;9905;52.126;5.596;2024-01-15T02:50:15;1.70;99.90
19522;DHT22;9905;52.126;5.596;2024-01-15T02:52:42;1.70;99.90
19522;DHT22;9905;52.126;5.596;2024-01-15T02:55:09;1.70;99.90
19522;DHT22;9905;52.126;5.596;2024-01-15T02:57:37;1.70;99.90
19522;DHT22;9905;52.126;5.596;2024-01-15T03:00:05;1.70;99.90
19522;DHT22;9905;52.126;5.596;2024-01-15T03:02:32;1.70;99.90
19522;DHT22;9905;52.126;5.596;2024-01-15T03:04:59;1.80;99.90
19522;DHT22;9905;52.126;5.596;2024-01-15T03:07:27;1.80;99.90
19522;DHT22;9905;52.126;5.596;2024-01-15T03:09:54;1.80;99.90
19522;DHT22;9905;52.126;5.596;2024-01-15T03:12:20;1.80;99.90
19522;DHT22;9905;52.126;5.596;2024-01-15T03:14:48;1.80;99.90
19522;DHT22;9905;52.126;5.596;2024-01-15T03:17:15;1.80;99.90
19522;DHT22;9905;52.126;5.596;2024-01-15T03:19:42;1.80;99.90
19522;DHT22;9905;52.126;5.596;2024-01-15T03:22:09;1.80;99.90
19522;DHT22;9905;52.126;5.596;2024-01-15T03:24:35;1.80;99.90
19522;DHT22;9905;52.126;5.596;2024-01-15T03:27:03;1.80;99.90
19522;DHT22;9905;52.126;5.596;2024-01-15T03:29:30;1.80;99.90
19522;DHT22;9905;52.126;5.596;2024-01-15T03:31:58;1.80;99.90
19522;DHT22;9905;52.126;5.596;2024-01-15T03:34:24;1.80;99.90
19522;DHT22;9905;52.126;5.596;2024-01-15T03:36:51;1.80;99.90
19522;DHT22;9905;52.126;5.596;2024-01-15T03:39:18;1.90;99.90
19522;DHT22;9905;52.126;5.596;2024-01-15T03:41:45;1.90;99.90
19522;DHT22;9905;52.126;5.596;2024-01-15T03:44:11;1.90;99.90
19522;DHT22;9905;52.126;5.596;2024-01-15T03:46:39;1.90;99.90
19522;DHT22;9905;52.126;5.596;2024-01-15T03:49:07;1.90;99.90
19522;DHT22;9905;52.126;5.596;2024-01-15T03:51:34;2.00;99.90
19522;DHT22;9905;52.126;5.596;2024-01-15T03:54:00;1.90;99.90
19522;DHT22;9905;52.126;5.596;2024-01-15T03:56:27;2.00;99.90
19522;DHT22;9905;52.126;5.596;2024-01-15T03:58:54;2.00;99.90
19522;DHT22;9905;52.126;5.596;2024-01-15T04:01:20;2.00;99.90
19522;DHT22;9905;52.126;5.596;2024-01-15T04:03:47;1.90;99.90
19522;DHT22;9905;52.126;5.596;2024-01-15T04:06:15;1.90;99.90
19522;DHT22;9905;52.126;5.596;2024-01-15T04:08:42;1.90;99.90
19522;DHT22;9905;52.126;5.596;2024-01-15T04:11:09;1.90;99.90
19522;DHT22;9905;52.126;5.596;2024-01-15T04:13:36;1.90;99.90
19522;DHT22;9905;52.126;5.596;2024-01-15T04:16:03;1.90;99.90
19522;DHT22;9905;52.126;5.596;2024-01-15T04:18:30;1.80;99.90
19522;DHT22;9905;52.126;5.596;2024-01-15T04:20:57;1.80;99.90
19522;DHT22;9905;52.126;5.596;2024-01-15T04:23:25;1.80;99.90
19522;DHT22;9905;52.126;5.596;2024-01-15T04:25:52;1.80;99.90
19522;DHT22;9905;52.126;5.596;2024-01-15T04:28:18;1.80;99.90
19522;DHT22;9905;52.126;5.596;2024-01-15T04:30:45;1.80;99.90
19522;DHT22;9905;52.126;5.596;2024-01-15T04:33:12;1.80;99.90
19522;DHT22;9905;52.126;5.596;2024-01-15T04:35:39;1.70;99.90
19522;DHT22;9905;52.126;5.596;2024-01-15T04:38:06;1.70;99.90
19522;DHT22;9905;52.126;5.596;2024-01-15T04:40:34;1.70;99.90
19522;DHT22;9905;52.126;5.596;2024-01-15T04:43:00;1.70;99.90
19522;DHT22;9905;52.126;5.596;2024-01-15T04:45:28;1.70;99.90
19522;DHT22;9905;52.126;5.596;2024-01-15T04:47:55;1.60;99.90
19522;DHT22;9905;52.126;5.596;2024-01-15T04:50:23;1.60;99.90
19522;DHT22;9905;52.126;5.596;2024-01-15T04:52:50;1.60;99.90
19522;DHT22;9905;52.126;5.596;2024-01-15T04:55:17;1.60;99.90
19522;DHT22;9905;52.126;5.596;2024-01-15T04:57:46;1.60;99.90
19522;DHT22;9905;52.126;5.596;2024-01-15T05:00:13;1.50;99.90
19522;DHT22;9905;52.126;5.596;2024-01-15T05:02:40;1.60;99.90
19522;DHT22;9905;52.126;5.596;2024-01-15T05:05:07;1.60;99.90
19522;DHT22;9905;52.126;5.596;2024-01-15T05:07:33;1.60;99.90
19522;DHT22;9905;52.126;5.596;2024-01-15T05:10:00;1.60;99.90
19522;DHT22;9905;52.126;5.596;2024-01-15T05:12:27;1.50;99.90
19522;DHT22;9905;52.126;5.596;2024-01-15T05:14:55;1.50;99.90
19522;DHT22;9905;52.126;5.596;2024-01-15T05:17:22;1.50;99.90
19522;DHT22;9905;52.126;5.596;2024-01-15T05:19:48;1.50;99.90
19522;DHT22;9905;52.126;5.596;2024-01-15T05:22:15;1.50;99.90
19522;DHT22;9905;52.126;5.596;2024-01-15T05:24:42;1.60;99.90
19522;DHT22;9905;52.126;5.596;2024-01-15T05:27:09;1.60;99.90
19522;DHT22;9905;52.126;5.596;2024-01-15T05:29:35;1.60;99.90
19522;DHT22;9905;52.126;5.596;2024-01-15T05:32:04;1.60;99.90
19522;DHT22;9905;52.126;5.596;2024-01-15T05:34:30;1.60;99.90
19522;DHT22;9905;52.126;5.596;2024-01-15T05:36:57;1.60;99.90
19522;DHT22;9905;52.126;5.596;2024-01-15T05:39:24;1.60;99.90
19522;DHT22;9905;52.126;5.596;2024-01-15T05:41:50;1.60;99.90
19522;DHT22;9905;52.126;5.596;2024-01-15T05:44:17;1.60;99.90
19522;DHT22;9905;52.126;5.596;2024-01-15T05:46:44;1.60;99.90
19522;DHT22;9905;52.126;5.596;2024-01-15T05:49:12;1.60;99.90
19522;DHT22;9905;52.126;5.596;2024-01-15T05:51:39;1.60;99.90
19522;DHT22;9905;52.126;5.596;2024-01-15T05:54:06;1.70;99.90
19522;DHT22;9905;52.126;5.596;2024-01-15T05:56:33;1.60;99.90
19522;DHT22;9905;52.126;5.596;2024-01-15T05:59:00;1.70;99.90
19522;DHT22;9905;52.126;5.596;2024-01-15T06:01:27;1.70;99.90
19522;DHT22;9905;52.126;5.596;2024-01-15T06:03:53;1.70;99.90
19522;DHT22;9905;52.126;5.596;2024-01-15T06:06:21;1.70;99.90
19522;DHT22;9905;52.126;5.596;2024-01-15T06:08:48;1.70;99.90
19522;DHT22;9905;52.126;5.596;2024-01-15T06:11:15;1.70;99.90
19522;DHT22;9905;52.126;5.596;2024-01-15T06:13:42;1.70;99.90
19522;DHT22;9905;52.126;5.596;2024-01-15T06:16:15;1.70;99.90
19522;DHT22;9905;52.126;5.596;2024-01-15T06:18:42;1.70;99.90
19522;DHT22;9905;52.126;5.596;2024-01-15T06:21:08;1.70;99.90
19522;DHT22;9905;52.126;5.596;2024-01-15T06:23:37;1.70;99.90
19522;DHT22;9905;52.126;5.596;2024-01-15T06:26:04;1.60;99.90
19522;DHT22;9905;52.126;5.596;2024-01-15T06:28:31;1.60;99.90
19522;DHT22;9905;52.126;5.596;2024-01-15T06:30:58;1.50;99.90
19522;DHT22;9905;52.126;5.596;2024-01-15T06:33:25;1.50;99.90
19522;DHT22;9905;52.126;5.596;2024-01-15T06:35:51;1.40;99.90
19522;DHT22;9905;52.126;5.596;2024-01-15T06:38:18;1.40;99.90
19522;DHT22;9905;52.126;5.596;2024-01-15T06:40:46;1.50;99.90
19522;DHT22;9905;52.126;5.596;2024-01-15T06:43:14;1.50;99.90
19522;DHT22;9905;52.126;5.596;2024-01-15T06:45:41;1.50;99.90
19522;DHT22;9905;52.126;5.596;2024-01-15T06:48:08;1.50;99.90
19522;DHT22;9905;52.126;5.596;2024-01-15T06:50:35;1.50;99.90
19522;DHT22;9905;52.126;5.596;2024-01-15T06:53:01;1.50;99.90
19522;DHT22;9905;52.126;5.596;2024-01-15T06:55:28;1.50;99.90
19522;DHT22;9905;52.126;5.596;2024-01-15T06:57:56;1.50;99.90
19522;DHT22;9905;52.126;5.596;2024-01-15T07:00:23;1.50;99.90
19522;DHT22;9905;52.126;5.596;2024-01-15T07:02:50;1.50;99.90
19522;DHT22;9905;52.126;5.596;2024-01-15T07:05:17;1.50;99.90
19522;DHT22;9905;52.126;5.596;2024-01-15T07:07:44;1.50;99.90
19522;DHT22;9905;52.126;5.596;2024-01-15T07:10:10;1.50;99.90
19522;DHT22;9905;52.126;5.596;2024-01-15T07:12:37;1.50;99.90
19522;DHT22;9905;52.126;5.596;2024-01-15T07:15:06;1.50;99.90
19522;DHT22;9905;52.126;5.596;2024-01-15T07:17:33;1.50;99.90
19522;DHT22;9905;52.126;5.596;2024-01-15T07:20:00;1.50;99.90
19522;DHT22;9905;52.126;5.596;2024-01-15T07:22:27;1.50;99.90
19522;DHT22;9905;52.126;5.596;2024-01-15T07:24:55;1.50;99.90
19522;DHT22;9905;52.126;5.596;2024-01-15T07:27:21;1.50;99.90
19522;DHT22;9905;52.126;5.596;2024-01-15T07:29:48;1.50;99.90
19522;DHT22;9905;52.126;5.596;2024-01-15T07:32:16;1.50;99.90
19522;DHT22;9905;52.126;5.596;2024-01-15T07:34:43;1.50;99.90
19522;DHT22;9905;52.126;5.596;2024-01-15T07:37:10;1.50;99.90
19522;DHT22;9905;52.126;5.596;2024-01-15T07:39:37;1.50;99.90
19522;DHT22;9905;52.126;5.596;2024-01-15T07:42:04;1.50;99.90
19522;DHT22;9905;52.126;5.596;2024-01-15T07:44:31;1.50;99.90
19522;DHT22;9905;52.126;5.596;2024-01-15T07:46:57;1.50;99.90
19522;DHT22;9905;52.126;5.596;2024-01-15T07:49:26;1.50;99.90
19522;DHT22;9905;52.126;5.596;2024-01-15T07:51:52;1.50;99.90
19522;DHT22;9905;52.126;5.596;2024-01-15T07:54:19;1.50;99.90
19522;DHT22;9905;52.126;5.596;2024-01-15T07:56:56;1.50;99.90
19522;DHT22;9905;52.126;5.596;2024-01-15T07:59:23;1.50;99.90
19522;DHT22;9905;52.126;5.596;2024-01-15T08:01:51;1.50;99.90
19522;DHT22;9905;52.126;5.596;2024-01-15T08:04:18;1.50;99.90
19522;DHT22;9905;52.126;5.596;2024-01-15T08:06:48;1.50;99.90
19522;DHT22;9905;52.126;5.596;2024-01-15T08:09:15;1.50;99.90
19522;DHT22;9905;52.126;5.596;2024-01-15T08:11:42;1.50;99.90
19522;DHT22;9905;52.126;5.596;2024-01-15T08:14:09;1.50;99.90
19522;DHT22;9905;52.126;5.596;2024-01-15T08:16:36;1.50;99.90
19522;DHT22;9905;52.126;5.596;2024-01-15T08:19:03;1.50;99.90
19522;DHT22;9905;52.126;5.596;2024-01-15T08:21:30;1.50;99.90
19522;DHT22;9905;52.126;5.596;2024-01-15T08:23:59;1.50;99.90
19522;DHT22;9905;52.126;5.596;2024-01-15T08:26:26;1.50;99.90
19522;DHT22;9905;52.126;5.596;2024-01-15T08:28:53;1.50;99.90
19522;DHT22;9905;52.126;5.596;2024-01-15T08:31:20;1.50;99.90
19522;DHT22;9905;52.126;5.596;2024-01-15T08:33:46;1.50;99.90
19522;DHT22;9905;52.126;5.596;2024-01-15T08:36:13;1.50;99.90
19522;DHT22;9905;52.126;5.596;2024-01-15T08:38:40;1.50;99.90
19522;DHT22;9905;52.126;5.596;2024-01-15T08:41:08;1.60;99.90
19522;DHT22;9905;52.126;5.596;2024-01-15T08:43:35;1.50;99.90
19522;DHT22;9905;52.126;5.596;2024-01-15T08:46:02;1.50;99.90
19522;DHT22;9905;52.126;5.596;2024-01-15T08:48:29;1.50;99.90
19522;DHT22;9905;52.126;5.596;2024-01-15T08:50:55;1.50;99.90
19522;DHT22;9905;52.126;5.596;2024-01-15T08:53:22;1.40;99.90
19522;DHT22;9905;52.126;5.596;2024-01-15T08:55:49;1.50;99.90
19522;DHT22;9905;52.126;5.596;2024-01-15T08:58:18;1.50;99.90
19522;DHT22;9905;52.126;5.596;2024-01-15T09:00:44;1.50;99.90
19522;DHT22;9905;52.126;5.596;2024-01-15T09:03:11;1.50;99.90
19522;DHT22;9905;52.126;5.596;2024-01-15T09:05:38;1.50;99.90
19522;DHT22;9905;52.126;5.596;2024-01-15T09:08:06;1.50;99.90
19522;DHT22;9905;52.126;5.596;2024-01-15T09:10:33;1.50;99.90
19522;DHT22;9905;52.126;5.596;2024-01-15T09:13:00;1.50;99.90
19522;DHT22;9905;52.126;5.596;2024-01-15T09:15:28;1.60;99.90
19522;DHT22;9905;52.126;5.596;2024-01-15T09:17:54;1.60;99.90
19522;DHT22;9905;52.126;5.596;2024-01-15T09:20:22;1.60;99.90
19522;DHT22;9905;52.126;5.596;2024-01-15T09:22:49;1.70;99.90
19522;DHT22;9905;52.126;5.596;2024-01-15T09:25:16;1.70;99.90
19522;DHT22;9905;52.126;5.596;2024-01-15T09:27:44;1.70;99.90
19522;DHT22;9905;52.126;5.596;2024-01-15T09:30:11;1.80;99.90
19522;DHT22;9905;52.126;5.596;2024-01-15T09:32:39;1.90;99.90
19522;DHT22;9905;52.126;5.596;2024-01-15T09:35:07;1.90;99.90
19522;DHT22;9905;52.126;5.596;2024-01-15T09:37:34;1.90;99.90
19522;DHT22;9905;52.126;5.596;2024-01-15T09:40:01;1.90;99.90
19522;DHT22;9905;52.126;5.596;2024-01-15T09:42:29;1.80;99.90
19522;DHT22;9905;52.126;5.596;2024-01-15T09:44:56;1.80;99.90
19522;DHT22;9905;52.126;5.596;2024-01-15T09:47:24;1.80;99.90
19522;DHT22;9905;52.126;5.596;2024-01-15T09:49:52;1.70;99.90
19522;DHT22;9905;52.126;5.596;2024-01-15T09:52:19;1.70;99.90
19522;DHT22;9905;52.126;5.596;2024-01-15T09:54:47;1.70;99.90
19522;DHT22;9905;52.126;5.596;2024-01-15T09:57:15;1.80;99.90
19522;DHT22;9905;52.126;5.596;2024-01-15T09:59:44;1.90;99.90
19522;DHT22;9905;52.126;5.596;2024-01-15T10:02:13;2.00;99.90
19522;DHT22;9905;52.126;5.596;2024-01-15T10:04:44;2.10;99.90
19522;DHT22;9905;52.126;5.596;2024-01-15T10:07:15;2.20;99.90
19522;DHT22;9905;52.126;5.596;2024-01-15T10:09:43;2.20;99.90
19522;DHT22;9905;52.126;5.596;2024-01-15T10:12:10;2.10;99.90
19522;DHT22;9905;52.126;5.596;2024-01-15T10:14:37;2.00;99.90
19522;DHT22;9905;52.126;5.596;2024-01-15T10:17:12;2.00;99.90
19522;DHT22;9905;52.126;5.596;2024-01-15T10:19:40;2.00;99.90
19522;DHT22;9905;52.126;5.596;2024-01-15T10:22:08;2.10;99.90
19522;DHT22;9905;52.126;5.596;2024-01-15T10:24:36;2.00;99.90
19522;DHT22;9905;52.126;5.596;2024-01-15T10:27:07;2.00;99.90
19522;DHT22;9905;52.126;5.596;2024-01-15T10:29:34;2.10;99.90
19522;DHT22;9905;52.126;5.596;2024-01-15T10:32:02;2.10;99.90
19522;DHT22;9905;52.126;5.596;2024-01-15T10:34:30;2.10;99.90
19522;DHT22;9905;52.126;5.596;2024-01-15T10:36:57;2.20;99.90
19522;DHT22;9905;52.126;5.596;2024-01-15T10:39:24;2.10;99.90
19522;DHT22;9905;52.126;5.596;2024-01-15T10:41:52;2.10;99.90
19522;DHT22;9905;52.126;5.596;2024-01-15T10:44:19;2.10;99.90
19522;DHT22;9905;52.126;5.596;2024-01-15T10:46:46;2.00;99.90
19522;DHT22;9905;52.126;5.596;2024-01-15T10:49:12;2.00;99.90
19522;DHT22;9905;52.126;5.596;2024-01-15T10:51:40;2.00;99.90
19522;DHT22;9905;52.126;5.596;2024-01-15T10:54:09;2.00;99.90
19522;DHT22;9905;52.126;5.596;2024-01-15T10:56:37;2.00;99.90
19522;DHT22;9905;52.126;5.596;2024-01-15T10:59:05;2.00;99.90
19522;DHT22;9905;52.126;5.596;2024-01-15T11:01:33;2.10;99.90
19522;DHT22;9905;52.126;5.596;2024-01-15T11:04:00;2.10;99.90
19522;DHT22;9905;52.126;5.596;2024-01-15T11:06:28;2.10;99.90
19522;DHT22;9905;52.126;5.596;2024-01-15T11:09:07;2.10;99.90
19522;DHT22;9905;52.126;5.596;2024-01-15T11:11:35;2.10;99.90
19522;DHT22;9905;52.126;5.596;2024-01-15T11:14:02;2.20;99.90
19522;DHT22;9905;52.126;5.596;2024-01-15T11:16:53;2.20;99.90
19522;DHT22;9905;52.126;5.596;2024-01-15T11:19:21;2.20;99.90
19522;DHT22;9905;52.126;5.596;2024-01-15T11:21:48;2.20;99.90
19522;DHT22;9905;52.126;5.596;2024-01-15T11:24:33;2.20;99.90
19522;DHT22;9905;52.126;5.596;2024-01-15T11:27:00;2.30;99.90
19522;DHT22;9905;52.126;5.596;2024-01-15T11:29:31;2.30;99.90
19522;DHT22;9905;52.126;5.596;2024-01-15T11:32:02;2.30;99.90
19522;DHT22;9905;52.126;5.596;2024-01-15T11:34:50;2.30;99.90
19522;DHT22;9905;52.126;5.596;2024-01-15T11:37:18;2.30;99.90
19522;DHT22;9905;52.126;5.596;2024-01-15T11:39:45;2.30;99.90
19522;DHT22;9905;52.126;5.596;2024-01-15T11:42:13;2.30;99.90
19522;DHT22;9905;52.126;5.596;2024-01-15T11:44:41;2.30;99.90
19522;DHT22;9905;52.126;5.596;2024-01-15T11:47:11;2.30;99.90
19522;DHT22;9905;52.126;5.596;2024-01-15T11:49:59;2.40;99.90
19522;DHT22;9905;52.126;5.596;2024-01-15T11:52:32;2.40;99.90
19522;DHT22;9905;52.126;5.596;2024-01-15T11:55:05;2.40;99.90
19522;DHT22;9905;52.126;5.596;2024-01-15T11:57:41;2.50;99.90
19522;DHT22;9905;52.126;5.596;2024-01-15T12:00:09;2.60;99.90
19522;DHT22;9905;52.126;5.596;2024-01-15T12:02:38;2.70;99.90
19522;DHT22;9905;52.126;5.596;2024-01-15T12:05:06;2.70;99.90
19522;DHT22;9905;52.126;5.596;2024-01-15T12:07:33;2.80;99.90
19522;DHT22;9905;52.126;5.596;2024-01-15T12:10:00;2.80;99.90
19522;DHT22;9905;52.126;5.596;2024-01-15T12:12:34;2.80;99.90
19522;DHT22;9905;52.126;5.596;2024-01-15T12:15:03;2.90;99.90
19522;DHT22;9905;52.126;5.596;2024-01-15T12:17:30;2.90;99.90
19522;DHT22;9905;52.126;5.596;2024-01-15T12:19:59;2.80;99.90
19522;DHT22;9905;52.126;5.596;2024-01-15T12:22:26;2.70;99.90
19522;DHT22;9905;52.126;5.596;2024-01-15T12:24:53;2.60;99.90
19522;DHT22;9905;52.126;5.596;2024-01-15T12:27:20;2.50;99.90
19522;DHT22;9905;52.126;5.596;2024-01-15T12:29:47;2.50;99.90
19522;DHT22;9905;52.126;5.596;2024-01-15T12:32:14;2.40;99.90
19522;DHT22;9905;52.126;5.596;2024-01-15T12:34:41;2.40;99.90
19522;DHT22;9905;52.126;5.596;2024-01-15T12:37:09;2.40;99.90
19522;DHT22;9905;52.126;5.596;2024-01-15T12:39:37;2.40;99.90
19522;DHT22;9905;52.126;5.596;2024-01-15T12:42:04;2.40;99.90
19522;DHT22;9905;52.126;5.596;2024-01-15T12:44:31;2.40;99.90
19522;DHT22;9905;52.126;5.596;2024-01-15T12:46:58;2.50;99.90
19522;DHT22;9905;52.126;5.596;2024-01-15T12:49:25;2.50;99.90
19522;DHT22;9905;52.126;5.596;2024-01-15T12:51:52;2.60;99.90
19522;DHT22;9905;52.126;5.596;2024-01-15T12:54:20;2.50;99.90
19522;DHT22;9905;52.126;5.596;2024-01-15T12:56:47;2.50;99.90
19522;DHT22;9905;52.126;5.596;2024-01-15T12:59:14;2.50;99.90
19522;DHT22;9905;52.126;5.596;2024-01-15T13:01:41;2.40;99.90
19522;DHT22;9905;52.126;5.596;2024-01-15T13:04:08;2.40;99.90
19522;DHT22;9905;52.126;5.596;2024-01-15T13:06:35;2.40;99.90
19522;DHT22;9905;52.126;5.596;2024-01-15T13:09:02;2.40;99.90
19522;DHT22;9905;52.126;5.596;2024-01-15T13:11:32;2.40;99.90
19522;DHT22;9905;52.126;5.596;2024-01-15T13:13:58;2.40;99.90
19522;DHT22;9905;52.126;5.596;2024-01-15T13:16:25;2.40;99.90
19522;DHT22;9905;52.126;5.596;2024-01-15T13:18:54;2.40;99.90
19522;DHT22;9905;52.126;5.596;2024-01-15T13:21:21;2.30;99.90
19522;DHT22;9905;52.126;5.596;2024-01-15T13:23:48;2.30;99.90
19522;DHT22;9905;52.126;5.596;2024-01-15T13:26:15;2.30;99.90
19522;DHT22;9905;52.126;5.596;2024-01-15T13:28:45;2.30;99.90
19522;DHT22;9905;52.126;5.596;2024-01-15T13:31:11;2.30;99.90
19522;DHT22;9905;52.126;5.596;2024-01-15T13:33:38;2.20;99.90
19522;DHT22;9905;52.126;5.596;2024-01-15T13:36:06;2.20;99.90
19522;DHT22;9905;52.126;5.596;2024-01-15T13:38:36;2.30;99.90
19522;DHT22;9905;52.126;5.596;2024-01-15T13:41:04;2.30;99.90
19522;DHT22;9905;52.126;5.596;2024-01-15T13:43:31;2.40;99.90
19522;DHT22;9905;52.126;5.596;2024-01-15T13:45:59;2.50;99.90
19522;DHT22;9905;52.126;5.596;2024-01-15T13:48:30;2.60;99.90
19522;DHT22;9905;52.126;5.596;2024-01-15T13:50:57;2.60;99.90
19522;DHT22;9905;52.126;5.596;2024-01-15T13:53:24;2.70;99.90
19522;DHT22;9905;52.126;5.596;2024-01-15T13:55:51;2.80;99.90
19522;DHT22;9905;52.126;5.596;2024-01-15T13:58:18;2.80;99.90
19522;DHT22;9905;52.126;5.596;2024-01-15T14:00:47;2.80;99.90
19522;DHT22;9905;52.126;5.596;2024-01-15T14:03:15;2.80;99.90
19522;DHT22;9905;52.126;5.596;2024-01-15T14:05:42;2.80;99.90
19522;DHT22;9905;52.126;5.596;2024-01-15T14:08:08;2.80;99.90
19522;DHT22;9905;52.126;5.596;2024-01-15T14:10:35;2.80;99.90
19522;DHT22;9905;52.126;5.596;2024-01-15T14:13:03;2.80;99.90
19522;DHT22;9905;52.126;5.596;2024-01-15T14:15:30;2.70;99.90
19522;DHT22;9905;52.126;5.596;2024-01-15T14:17:56;2.70;99.90
19522;DHT22;9905;52.126;5.596;2024-01-15T14:20:25;2.70;99.90
19522;DHT22;9905;52.126;5.596;2024-01-15T14:22:52;2.70;99.90
19522;DHT22;9905;52.126;5.596;2024-01-15T14:25:19;2.80;99.90
19522;DHT22;9905;52.126;5.596;2024-01-15T14:27:46;2.90;99.90
19522;DHT22;9905;52.126;5.596;2024-01-15T14:30:13;2.90;99.90
19522;DHT22;9905;52.126;5.596;2024-01-15T14:32:41;2.90;99.90
19522;DHT22;9905;52.126;5.596;2024-01-15T14:35:08;2.90;99.90
19522;DHT22;9905;52.126;5.596;2024-01-15T14:37:37;2.90;99.90
19522;DHT22;9905;52.126;5.596;2024-01-15T14:40:05;2.90;99.90
19522;DHT22;9905;52.126;5.596;2024-01-15T14:42:33;2.90;99.90
19522;DHT22;9905;52.126;5.596;2024-01-15T14:45:00;3.00;99.90
19522;DHT22;9905;52.126;5.596;2024-01-15T14:47:28;3.00;99.90
19522;DHT22;9905;52.126;5.596;2024-01-15T14:49:55;3.00;99.90
19522;DHT22;9905;52.126;5.596;2024-01-15T14:52:23;3.00;99.90
19522;DHT22;9905;52.126;5.596;2024-01-15T14:54:51;3.00;99.90
19522;DHT22;9905;52.126;5.596;2024-01-15T14:57:18;2.90;99.90
19522;DHT22;9905;52.126;5.596;2024-01-15T14:59:44;2.90;99.90
19522;DHT22;9905;52.126;5.596;2024-01-15T15:02:11;2.80;99.90
19522;DHT22;9905;52.126;5.596;2024-01-15T15:04:39;2.80;99.90
19522;DHT22;9905;52.126;5.596;2024-01-15T15:07:07;2.80;99.90
19522;DHT22;9905;52.126;5.596;2024-01-15T15:09:33;2.80;99.90
19522;DHT22;9905;52.126;5.596;2024-01-15T15:12:05;2.80;99.90
19522;DHT22;9905;52.126;5.596;2024-01-15T15:14:32;2.80;99.90
19522;DHT22;9905;52.126;5.596;2024-01-15T15:17:03;2.70;99.90
19522;DHT22;9905;52.126;5.596;2024-01-15T15:19:30;2.70;99.90
19522;DHT22;9905;52.126;5.596;2024-01-15T15:21:57;2.70;99.90
19522;DHT22;9905;52.126;5.596;2024-01-15T15:24:24;2.70;99.90
19522;DHT22;9905;52.126;5.596;2024-01-15T15:26:51;2.60;99.90
19522;DHT22;9905;52.126;5.596;2024-01-15T15:29:19;2.60;99.90
19522;DHT22;9905;52.126;5.596;2024-01-15T15:31:46;2.60;99.90
19522;DHT22;9905;52.126;5.596;2024-01-15T15:34:14;2.50;99.90
19522;DHT22;9905;52.126;5.596;2024-01-15T15:36:42;2.50;99.90
19522;DHT22;9905;52.126;5.596;2024-01-15T15:39:08;2.50;99.90
19522;DHT22;9905;52.126;5.596;2024-01-15T15:41:35;2.40;99.90
19522;DHT22;9905;52.126;5.596;2024-01-15T15:44:03;2.40;99.90
19522;DHT22;9905;52.126;5.596;2024-01-15T15:46:31;2.40;99.90
19522;DHT22;9905;52.126;5.596;2024-01-15T15:48:58;2.40;99.90
19522;DHT22;9905;52.126;5.596;2024-01-15T15:51:25;2.40;99.90
19522;DHT22;9905;52.126;5.596;2024-01-15T15:53:52;2.50;99.90
19522;DHT22;9905;52.126;5.596;2024-01-15T15:56:18;2.50;99.90
19522;DHT22;9905;52.126;5.596;2024-01-15T15:58:45;2.60;99.90
19522;DHT22;9905;52.126;5.596;2024-01-15T16:01:12;2.60;99.90
19522;DHT22;9905;52.126;5.596;2024-01-15T16:03:40;2.60;99.90